Ashland, VA (23005)

3:59 AM EST on December 07, 2016 (GMT -0500)
Ashland | | Change Station

Elev 210 ft 37.75 °N, 77.48 °W | Updated 14 minutes ago

Overcast
Overcast
42.8 °F
Feels Like 43 °F
N
1.0
Wind Variable Wind from NW
Gusts 3.0 mph

Today
High -- | Low -- °F
--% Chance of Precip.
Yesterday
High -- | Low -- °F
Precip. -- in
Pressure 29.94 in
Visibility 10.0 miles
Clouds Overcast 700 ft
Windchill 43 °F
Dew Point 42 °F
Humidity 96%
Rainfall 0.00 in
Snow Depth Not available.
7:12 AM 4:50 PM
Waxing Crescent, 50% visible
METAR KOFP 070854Z AUTO 31007KT 10SM OVC007 06/04 A2994 RMK AO2 PRESRR SLP137 T00610044 53028
Pressure 29.94 in
Visibility 10.0 miles
Clouds Overcast 700 ft
Windchill 43 °F
Dew Point 42 °F
Humidity 96%
Rainfall 0.00 in
Snow Depth Not available.
7:12 AM 4:50 PM
Waxing Crescent, 50% visible
METAR KOFP 070854Z AUTO 31007KT 10SM OVC007 06/04 A2994 RMK AO2 PRESRR SLP137 T00610044 53028

10-Day Weather Forecast

Almanac

Astronomy

Dec. 07, 2016 Rise Set
Actual Time
Civil Twilight
Nautical Twilight
Astronomical Twilight
Moon
Length of Visible Light
Length of Day
Tomorrow will be .
, % of the Moon is Illuminated

Today's Extremes

State Highs State Lows

Community

WunderPhotos

Upload Photos

1,956,104 photos uploaded!

WunderBlog® & News

Nearby

Air Quality

  Air Quality AQ Index Pollutant
Not available.

Snow Depth

Station Depth Elevation

Earthquake Activity

City Distance Mag. Time & Date
Minimum magnitude displayed is 2.5.

Coastal Water Temperatures

Place Temperature

Stations

Nearby Weather Stations

Station Location Temp. Windchill Dew Point Humidity Wind Precip. Elev Updated Type
                   

Watches & Warnings

There are currently no watches in effect.